createdAt,value
2019-01-26T00:00:04.292Z,2.25
2019-01-26T00:01:04.440Z,2.11
2019-01-26T00:02:04.606Z,2.06
2019-01-26T00:03:04.824Z,2.07
2019-01-26T00:04:06.823Z,2.08
2019-01-26T00:05:06.862Z,1.99
2019-01-26T00:06:05.390Z,2.04
2019-01-26T00:07:05.447Z,2.08
2019-01-26T00:08:05.615Z,2.10
2019-01-26T00:09:05.782Z,2.11
2019-01-26T00:10:05.962Z,2.00
2019-01-26T00:11:06.126Z,1.97
2019-01-26T00:12:06.301Z,1.97
2019-01-26T00:13:06.522Z,1.94
2019-01-26T00:14:06.638Z,2.07
2019-01-26T00:15:08.331Z,2.04
2019-01-26T00:16:06.922Z,2.06
2019-01-26T00:17:07.093Z,2.08
2019-01-26T00:18:07.307Z,2.10
2019-01-26T00:19:07.465Z,2.00
2019-01-26T00:20:09.506Z,2.10
2019-01-26T00:21:07.846Z,2.07
2019-01-26T00:22:08.004Z,2.24
2019-01-26T00:23:08.299Z,2.14
2019-01-26T00:24:08.502Z,2.14
2019-01-26T00:25:08.563Z,2.08
2019-01-26T00:26:08.804Z,2.10
2019-01-26T00:27:08.883Z,2.06
2019-01-26T00:28:09.042Z,2.06
2019-01-26T00:29:09.198Z,2.15
2019-01-26T00:30:09.365Z,2.15
2019-01-26T00:31:11.436Z,2.24
2019-01-26T00:32:09.725Z,2.15
2019-01-26T00:33:10.563Z,2.26
2019-01-26T00:34:10.167Z,2.32
2019-01-26T00:35:11.321Z,2.24
2019-01-26T00:36:10.505Z,2.35
2019-01-26T00:37:10.716Z,2.33
2019-01-26T00:38:10.867Z,2.31
2019-01-26T00:39:11.085Z,2.32
2019-01-26T00:40:11.139Z,2.17
2019-01-26T00:41:11.324Z,2.17
2019-01-26T00:42:13.701Z,2.20
2019-01-26T00:43:11.654Z,2.15
2019-01-26T00:44:12.957Z,2.20
2019-01-26T00:45:12.080Z,2.13
2019-01-26T00:46:12.095Z,2.20
2019-01-26T00:47:14.902Z,2.20
2019-01-26T00:48:16.614Z,2.15
2019-01-26T00:49:15.782Z,2.08
2019-01-26T00:50:14.482Z,2.13
2019-01-26T00:51:17.125Z,2.24
2019-01-26T00:52:13.058Z,2.24
2019-01-26T00:53:13.114Z,2.24
2019-01-26T00:54:13.292Z,2.18
2019-01-26T00:55:13.509Z,2.29
2019-01-26T00:56:13.655Z,2.32
2019-01-26T00:57:13.822Z,2.32
2019-01-26T00:58:14.006Z,2.22
2019-01-26T00:59:14.179Z,2.32
2019-01-26T01:00:14.368Z,2.26
2019-01-26T01:01:14.618Z,2.24
2019-01-26T01:02:14.691Z,2.31
2019-01-26T01:03:14.865Z,2.25
2019-01-26T01:04:15.051Z,2.32
2019-01-26T01:05:15.246Z,2.50
2019-01-26T01:06:15.399Z,2.49
2019-01-26T01:07:15.601Z,2.44
2019-01-26T01:08:15.789Z,2.36
2019-01-26T01:09:15.958Z,2.42
2019-01-26T01:10:16.142Z,2.51
2019-01-26T01:11:16.304Z,2.54
2019-01-26T01:12:16.476Z,2.47
2019-01-26T01:13:16.661Z,2.51
2019-01-26T01:14:17.892Z,2.51
2019-01-26T01:15:16.976Z,2.43
2019-01-26T01:16:17.176Z,2.51
2019-01-26T01:17:17.350Z,2.36
2019-01-26T01:18:17.580Z,2.43
2019-01-26T01:19:17.754Z,2.47
2019-01-26T01:20:17.897Z,2.43
2019-01-26T01:21:18.067Z,2.51
2019-01-26T01:22:18.243Z,2.50
2019-01-26T01:23:18.421Z,2.49
2019-01-26T01:24:18.617Z,2.42
2019-01-26T01:25:18.796Z,2.49
2019-01-26T01:26:18.968Z,2.50
2019-01-26T01:27:19.155Z,2.46
2019-01-26T01:28:19.374Z,2.43
2019-01-26T01:29:19.465Z,2.46
2019-01-26T01:30:19.660Z,2.50
2019-01-26T01:31:19.822Z,2.64
2019-01-26T01:32:20.000Z,2.51
2019-01-26T01:33:20.189Z,2.54
2019-01-26T01:34:20.345Z,2.60
2019-01-26T01:35:20.554Z,2.69
2019-01-26T01:36:20.696Z,2.57
2019-01-26T01:37:20.895Z,2.72
2019-01-26T01:38:21.011Z,2.80
2019-01-26T01:39:21.227Z,2.74
2019-01-26T01:40:21.400Z,2.74
2019-01-26T01:41:21.549Z,2.77
2019-01-26T01:42:21.728Z,2.74
2019-01-26T01:43:21.906Z,2.77
2019-01-26T01:44:22.077Z,2.82
2019-01-26T01:45:22.269Z,2.72
2019-01-26T01:46:22.474Z,2.85
2019-01-26T01:47:22.616Z,2.80
2019-01-26T01:48:22.782Z,2.85
2019-01-26T01:49:22.957Z,2.79
2019-01-26T01:50:23.123Z,2.85
2019-01-26T01:51:23.348Z,2.93
2019-01-26T01:52:23.472Z,2.90
2019-01-26T01:53:23.640Z,2.93
2019-01-26T01:54:23.808Z,2.85
2019-01-26T01:55:23.992Z,2.86
2019-01-26T01:56:24.206Z,2.85
2019-01-26T01:57:24.354Z,2.89
2019-01-26T01:58:24.506Z,2.93
2019-01-26T01:59:24.691Z,2.85
2019-01-26T02:00:24.881Z,2.86
2019-01-26T02:01:25.057Z,2.82
2019-01-26T02:02:25.248Z,2.86
2019-01-26T02:03:25.402Z,2.95
2019-01-26T02:04:25.580Z,2.93
2019-01-26T02:05:25.755Z,3.00
2019-01-26T02:06:25.980Z,3.04
2019-01-26T02:07:26.146Z,3.01
2019-01-26T02:08:26.310Z,2.95
2019-01-26T02:09:26.508Z,2.89
2019-01-26T02:10:26.651Z,2.85
2019-01-26T02:11:26.824Z,2.86
2019-01-26T02:12:27.020Z,2.85
2019-01-26T02:13:27.176Z,2.65
2019-01-26T02:14:27.346Z,2.75
2019-01-26T02:15:27.542Z,2.86
2019-01-26T02:16:27.696Z,2.79
2019-01-26T02:17:27.884Z,2.82
2019-01-26T02:18:28.083Z,2.75
2019-01-26T02:19:28.208Z,2.79
2019-01-26T02:20:28.409Z,2.83
2019-01-26T02:21:28.559Z,2.74
2019-01-26T02:22:28.804Z,2.85
2019-01-26T02:23:28.955Z,2.80
2019-01-26T02:24:28.961Z,2.74
2019-01-26T02:25:29.162Z,2.79
2019-01-26T02:26:29.331Z,2.87
2019-01-26T02:27:29.516Z,2.85
2019-01-26T02:28:29.738Z,2.75
2019-01-26T02:29:29.899Z,2.83
2019-01-26T02:30:30.042Z,2.85
2019-01-26T02:31:30.214Z,3.01
2019-01-26T02:32:30.415Z,2.86
2019-01-26T02:33:30.580Z,2.89
2019-01-26T02:34:30.745Z,2.87
2019-01-26T02:35:30.918Z,2.97
2019-01-26T02:36:31.098Z,2.95
2019-01-26T02:37:31.290Z,3.04
2019-01-26T02:38:31.456Z,3.03
2019-01-26T02:39:31.631Z,3.05
2019-01-26T02:40:31.805Z,3.08
2019-01-26T02:41:31.981Z,3.07
2019-01-26T02:42:32.145Z,3.08
2019-01-26T02:43:32.315Z,3.11
2019-01-26T02:44:32.483Z,3.07
2019-01-26T02:45:32.660Z,3.10
2019-01-26T02:46:32.857Z,3.07
2019-01-26T02:47:33.029Z,3.08
2019-01-26T02:48:33.354Z,3.25
2019-01-26T02:49:33.498Z,3.26
2019-01-26T02:50:33.615Z,3.26
2019-01-26T02:51:33.750Z,3.31
2019-01-26T02:52:33.936Z,3.37
2019-01-26T02:53:34.106Z,3.36
2019-01-26T02:54:34.278Z,3.32
2019-01-26T02:55:34.453Z,3.40
2019-01-26T02:56:34.644Z,3.32
2019-01-26T02:57:34.752Z,3.32
2019-01-26T02:58:34.925Z,3.29
2019-01-26T02:59:35.114Z,3.37
2019-01-26T03:00:35.273Z,3.32
2019-01-26T03:01:35.472Z,3.34
2019-01-26T03:02:35.622Z,3.37
2019-01-26T03:03:35.801Z,3.36
2019-01-26T03:04:35.969Z,3.32
2019-01-26T03:05:36.151Z,3.32
2019-01-26T03:06:36.321Z,3.40
2019-01-26T03:07:36.502Z,3.32
2019-01-26T03:08:36.674Z,3.25
2019-01-26T03:09:36.847Z,3.29
2019-01-26T03:10:37.084Z,3.28
2019-01-26T03:11:37.178Z,3.36
2019-01-26T03:12:37.366Z,3.34
2019-01-26T03:13:37.516Z,3.28
2019-01-26T03:14:37.694Z,3.28
2019-01-26T03:15:37.887Z,3.29
2019-01-26T03:16:38.098Z,3.32
2019-01-26T03:17:38.235Z,3.37
2019-01-26T03:18:38.432Z,3.34
2019-01-26T03:19:38.621Z,3.25
2019-01-26T03:20:38.785Z,3.37
2019-01-26T03:21:38.967Z,3.37
2019-01-26T03:22:39.152Z,3.34
2019-01-26T03:23:39.308Z,3.32
2019-01-26T03:24:39.501Z,3.40
2019-01-26T03:25:39.677Z,3.36
2019-01-26T03:26:39.899Z,3.41
2019-01-26T03:27:40.030Z,3.50
2019-01-26T03:28:40.213Z,3.55
2019-01-26T03:29:40.369Z,3.55
2019-01-26T03:30:40.558Z,3.50
2019-01-26T03:31:40.761Z,3.47
2019-01-26T03:32:40.906Z,3.59
2019-01-26T03:33:41.072Z,3.70
2019-01-26T03:34:41.250Z,3.58
2019-01-26T03:35:44.357Z,3.63
2019-01-26T03:36:41.653Z,3.62
2019-01-26T03:37:41.651Z,3.63
2019-01-26T03:38:41.847Z,3.68
2019-01-26T03:39:42.007Z,3.77
2019-01-26T03:40:42.215Z,3.70
2019-01-26T03:41:42.371Z,3.66
2019-01-26T03:42:42.562Z,3.77
2019-01-26T03:43:42.848Z,3.62
2019-01-26T03:44:42.929Z,3.74
2019-01-26T03:45:43.117Z,3.70
2019-01-26T03:46:43.279Z,3.74
2019-01-26T03:47:45.342Z,3.77
2019-01-26T03:48:43.546Z,3.77
2019-01-26T03:49:43.917Z,3.70
2019-01-26T03:50:43.877Z,3.69
2019-01-26T03:51:44.066Z,3.76
2019-01-26T03:52:44.211Z,3.73
2019-01-26T03:53:44.400Z,3.70
2019-01-26T03:54:44.570Z,3.80
2019-01-26T03:55:44.750Z,3.70
2019-01-26T03:56:44.933Z,3.74
2019-01-26T03:57:45.101Z,3.88
2019-01-26T03:58:45.292Z,3.74
2019-01-26T03:59:45.471Z,3.81
2019-01-26T04:00:45.637Z,3.86
2019-01-26T04:01:45.809Z,3.81
2019-01-26T04:02:45.984Z,3.91
2019-01-26T04:03:46.168Z,3.91
2019-01-26T04:04:46.368Z,3.92
2019-01-26T04:05:46.541Z,3.94
2019-01-26T04:06:46.724Z,3.99
2019-01-26T04:07:46.899Z,3.99
2019-01-26T04:08:47.091Z,4.01
2019-01-26T04:09:47.306Z,4.01
2019-01-26T04:10:47.476Z,3.95
2019-01-26T04:11:47.653Z,3.94
2019-01-26T04:12:47.833Z,3.95
2019-01-26T04:13:48.008Z,3.98
2019-01-26T04:14:48.224Z,3.99
2019-01-26T04:15:48.450Z,4.04
2019-01-26T04:16:48.558Z,4.02
2019-01-26T04:17:48.702Z,4.01
2019-01-26T04:18:48.879Z,4.06
2019-01-26T04:19:49.044Z,4.01
2019-01-26T04:20:49.215Z,3.99
2019-01-26T04:21:49.412Z,4.01
2019-01-26T04:22:49.634Z,4.02
2019-01-26T04:23:49.743Z,4.01
2019-01-26T04:24:49.917Z,4.04
2019-01-26T04:25:50.118Z,3.99
2019-01-26T04:26:50.307Z,4.08
2019-01-26T04:27:50.460Z,4.01
2019-01-26T04:28:50.624Z,4.04
2019-01-26T04:29:50.814Z,3.87
2019-01-26T04:30:50.979Z,4.01
2019-01-26T04:31:51.159Z,3.91
2019-01-26T04:32:51.352Z,3.86
2019-01-26T04:33:51.505Z,3.91
2019-01-26T04:34:51.671Z,4.01
2019-01-26T04:35:51.840Z,3.98
2019-01-26T04:36:52.018Z,3.96
2019-01-26T04:37:52.184Z,3.95
2019-01-26T04:38:52.355Z,3.99
2019-01-26T04:39:52.533Z,3.86
2019-01-26T04:40:52.716Z,3.83
2019-01-26T04:41:52.905Z,3.87
2019-01-26T04:42:53.081Z,3.92
2019-01-26T04:43:54.821Z,3.84
2019-01-26T04:44:53.392Z,3.88
2019-01-26T04:45:53.565Z,3.84
2019-01-26T04:46:53.762Z,3.92
2019-01-26T04:47:53.907Z,3.91
2019-01-26T04:48:54.095Z,3.88
2019-01-26T04:49:54.307Z,3.87
2019-01-26T04:50:54.391Z,3.84
2019-01-26T04:51:56.337Z,3.94
2019-01-26T04:52:56.527Z,3.95
2019-01-26T04:53:55.900Z,3.99
2019-01-26T04:55:00.925Z,3.95
2019-01-26T04:55:57.484Z,4.01
2019-01-26T04:56:56.951Z,3.96
2019-01-26T04:57:57.418Z,3.98
2019-01-26T04:58:57.729Z,3.86
2019-01-26T04:59:59.009Z,3.91
2019-01-26T05:00:55.927Z,3.96
2019-01-26T05:01:58.448Z,3.99
2019-01-26T05:02:56.257Z,3.96
2019-01-26T05:03:56.421Z,3.99
2019-01-26T05:04:58.942Z,3.95
2019-01-26T05:05:56.752Z,4.01
2019-01-26T05:06:58.927Z,4.04
2019-01-26T05:07:58.478Z,3.96
2019-01-26T05:08:57.335Z,3.94
2019-01-26T05:10:01.443Z,4.13
2019-01-26T05:10:57.813Z,4.05
2019-01-26T05:11:59.511Z,4.12
2019-01-26T05:12:57.835Z,4.05
2019-01-26T05:14:00.108Z,4.08
2019-01-26T05:15:00.445Z,4.16
2019-01-26T05:15:58.365Z,4.14
2019-01-26T05:16:58.552Z,4.10
2019-01-26T05:17:58.756Z,4.08
2019-01-26T05:18:58.924Z,4.16
2019-01-26T05:19:59.105Z,4.12
2019-01-26T05:20:59.332Z,4.10
2019-01-26T05:21:59.760Z,4.14
2019-01-26T05:22:59.735Z,4.08
2019-01-26T05:24:00.272Z,4.05
2019-01-26T05:25:00.031Z,4.04
2019-01-26T05:26:00.210Z,4.05
2019-01-26T05:27:00.403Z,4.10
2019-01-26T05:28:03.385Z,4.13
2019-01-26T05:29:02.134Z,4.20
2019-01-26T05:30:00.875Z,4.22
2019-01-26T05:31:00.932Z,4.22
2019-01-26T05:32:02.995Z,4.20
2019-01-26T05:33:04.686Z,4.17
2019-01-26T05:34:01.410Z,4.23
2019-01-26T05:35:01.562Z,4.16
2019-01-26T05:36:03.518Z,4.17
2019-01-26T05:37:03.955Z,4.20
2019-01-26T05:38:05.491Z,4.26
2019-01-26T05:39:04.994Z,4.26
2019-01-26T05:40:02.410Z,4.23
2019-01-26T05:41:02.452Z,4.28
2019-01-26T05:42:04.394Z,4.31
2019-01-26T05:43:02.838Z,4.28
2019-01-26T05:44:03.000Z,4.26
2019-01-26T05:45:03.174Z,4.23
2019-01-26T05:46:06.987Z,4.23
2019-01-26T05:47:03.567Z,4.24
2019-01-26T05:48:03.783Z,4.28
2019-01-26T05:49:03.920Z,4.23
2019-01-26T05:50:04.146Z,4.16
2019-01-26T05:51:05.890Z,4.17
2019-01-26T05:52:04.447Z,4.30
2019-01-26T05:53:04.645Z,4.23
2019-01-26T05:54:07.091Z,4.20
2019-01-26T05:55:05.012Z,4.20
2019-01-26T05:56:05.181Z,4.37
2019-01-26T05:57:05.347Z,4.24
2019-01-26T05:58:05.550Z,4.34
2019-01-26T05:59:08.822Z,4.28
2019-01-26T06:00:07.389Z,4.24
2019-01-26T06:01:06.117Z,4.24
2019-01-26T06:02:07.976Z,4.38
2019-01-26T06:03:06.418Z,4.38
2019-01-26T06:04:12.411Z,4.31
2019-01-26T06:05:06.770Z,4.22
2019-01-26T06:06:06.957Z,4.34
2019-01-26T06:07:07.130Z,4.24
2019-01-26T06:08:07.350Z,4.30
2019-01-26T06:09:11.498Z,4.30
2019-01-26T06:10:07.749Z,4.31
2019-01-26T06:11:08.928Z,4.24
2019-01-26T06:12:07.995Z,4.31
2019-01-26T06:13:08.198Z,4.24
2019-01-26T06:14:08.372Z,4.31
2019-01-26T06:15:08.527Z,4.38
2019-01-26T06:16:08.705Z,4.42
2019-01-26T06:17:08.922Z,4.35
2019-01-26T06:18:09.084Z,4.40
2019-01-26T06:19:09.303Z,4.32
2019-01-26T06:20:09.656Z,4.40
2019-01-26T06:21:09.574Z,4.42
2019-01-26T06:22:11.466Z,4.53
2019-01-26T06:23:09.958Z,4.41
2019-01-26T06:24:10.087Z,4.49
2019-01-26T06:25:10.319Z,4.52
2019-01-26T06:26:10.475Z,4.53
2019-01-26T06:27:10.698Z,4.52
2019-01-26T06:28:10.827Z,4.48
2019-01-26T06:29:11.014Z,4.44
2019-01-26T06:30:11.266Z,4.52
2019-01-26T06:31:11.341Z,4.52
2019-01-26T06:32:11.522Z,4.52
2019-01-26T06:33:11.791Z,4.45
2019-01-26T06:34:12.007Z,4.55
2019-01-26T06:35:12.128Z,4.55
2019-01-26T06:36:12.188Z,4.62
2019-01-26T06:37:12.348Z,4.58
2019-01-26T06:38:12.535Z,4.62
2019-01-26T06:39:12.735Z,4.60
2019-01-26T06:40:12.951Z,4.63
2019-01-26T06:41:13.144Z,4.62
2019-01-26T06:42:13.334Z,4.62
2019-01-26T06:43:13.582Z,4.66
2019-01-26T06:44:13.673Z,4.70
2019-01-26T06:45:13.905Z,4.67
2019-01-26T06:46:16.914Z,4.73
2019-01-26T06:47:14.260Z,4.71
2019-01-26T06:48:14.454Z,4.74
2019-01-26T06:49:14.721Z,4.66
2019-01-26T06:50:16.541Z,4.58
2019-01-26T06:51:14.985Z,4.60
2019-01-26T06:52:15.210Z,4.58
2019-01-26T06:53:15.357Z,4.56
2019-01-26T06:54:15.550Z,4.62
2019-01-26T06:55:15.720Z,4.53
2019-01-26T06:56:15.907Z,4.52
2019-01-26T06:57:16.055Z,4.49
2019-01-26T06:58:16.255Z,4.52
2019-01-26T06:59:18.527Z,4.48
2019-01-26T07:00:16.638Z,4.59
2019-01-26T07:01:16.762Z,4.62
2019-01-26T07:02:16.943Z,4.62
2019-01-26T07:03:17.139Z,4.59
2019-01-26T07:04:17.327Z,4.66
2019-01-26T07:05:17.523Z,4.45
2019-01-26T07:06:19.414Z,4.49
2019-01-26T07:07:20.059Z,4.49
2019-01-26T07:08:17.884Z,4.40
2019-01-26T07:09:18.101Z,4.45
2019-01-26T07:10:18.458Z,4.49
2019-01-26T07:11:18.387Z,4.42
2019-01-26T07:12:18.633Z,4.38
2019-01-26T07:13:20.447Z,4.52
2019-01-26T07:14:18.937Z,4.55
2019-01-26T07:15:19.121Z,4.42
2019-01-26T07:16:19.315Z,4.45
2019-01-26T07:17:19.483Z,4.55
2019-01-26T07:18:19.671Z,4.50
2019-01-26T07:19:19.890Z,4.45
2019-01-26T07:20:20.007Z,4.45
2019-01-26T07:21:20.200Z,4.40
2019-01-26T07:22:20.394Z,4.48
2019-01-26T07:23:20.527Z,4.53
2019-01-26T07:24:20.754Z,4.45
2019-01-26T07:25:22.492Z,4.53
2019-01-26T07:26:20.945Z,4.50
2019-01-26T07:27:21.112Z,4.53
2019-01-26T07:28:21.346Z,4.37
2019-01-26T07:29:22.133Z,4.50
2019-01-26T07:30:21.793Z,4.50
2019-01-26T07:31:21.859Z,4.42
2019-01-26T07:32:23.930Z,4.40
2019-01-26T07:33:23.905Z,4.42
2019-01-26T07:34:22.266Z,4.42
2019-01-26T07:35:22.533Z,4.44
2019-01-26T07:36:24.598Z,4.42
2019-01-26T07:37:24.660Z,4.42
2019-01-26T07:38:22.979Z,4.42
2019-01-26T07:39:23.261Z,4.49
2019-01-26T07:40:25.124Z,4.50
2019-01-26T07:41:23.516Z,4.55
2019-01-26T07:42:23.587Z,4.50
2019-01-26T07:43:23.830Z,4.58
2019-01-26T07:44:25.924Z,4.50
2019-01-26T07:45:26.009Z,4.58
2019-01-26T07:46:26.894Z,4.50
2019-01-26T07:47:24.330Z,4.59
2019-01-26T07:48:27.539Z,4.44
2019-01-26T07:49:24.737Z,4.38
2019-01-26T07:50:27.847Z,4.35
2019-01-26T07:51:25.295Z,4.48
2019-01-26T07:52:27.041Z,4.32
2019-01-26T07:53:25.523Z,4.44
2019-01-26T07:54:25.806Z,4.40
2019-01-26T07:55:27.242Z,4.48
2019-01-26T07:56:26.150Z,4.38
2019-01-26T07:57:26.395Z,4.53
2019-01-26T07:58:28.565Z,4.55
2019-01-26T07:59:26.665Z,4.52
2019-01-26T08:00:28.484Z,4.48
2019-01-26T08:01:27.147Z,4.50
2019-01-26T08:02:27.182Z,4.60
2019-01-26T08:03:28.563Z,4.53
2019-01-26T08:04:28.359Z,4.60
2019-01-26T08:05:29.814Z,4.62
2019-01-26T08:06:29.492Z,4.77
2019-01-26T08:07:31.009Z,4.70
2019-01-26T08:08:28.090Z,4.75
2019-01-26T08:09:28.266Z,4.73
2019-01-26T08:10:28.463Z,4.84
2019-01-26T08:11:28.662Z,4.71
2019-01-26T08:12:28.824Z,4.75
2019-01-26T08:13:31.299Z,4.80
2019-01-26T08:14:29.213Z,4.89
2019-01-26T08:15:29.292Z,4.82
2019-01-26T08:16:29.471Z,4.78
2019-01-26T08:17:30.872Z,4.78
2019-01-26T08:18:29.819Z,4.89
2019-01-26T08:19:30.069Z,4.89
2019-01-26T08:20:30.785Z,4.77
2019-01-26T08:21:30.285Z,4.75
2019-01-26T08:22:30.447Z,4.90
2019-01-26T08:23:30.657Z,4.92
2019-01-26T08:24:30.922Z,4.99
2019-01-26T08:25:31.144Z,4.93
2019-01-26T08:26:31.161Z,4.82
2019-01-26T08:27:31.644Z,4.86
2019-01-26T08:28:31.495Z,4.92
2019-01-26T08:29:31.680Z,4.94
2019-01-26T08:30:32.027Z,4.87
2019-01-26T08:31:32.063Z,4.92
2019-01-26T08:32:33.563Z,4.96
2019-01-26T08:33:32.955Z,4.87
2019-01-26T08:34:33.154Z,4.92
2019-01-26T08:35:34.828Z,5.04
2019-01-26T08:36:32.948Z,5.07
2019-01-26T08:37:36.233Z,4.94
2019-01-26T08:38:33.360Z,5.00
2019-01-26T08:39:33.305Z,5.07
2019-01-26T08:40:33.530Z,5.05
2019-01-26T08:41:33.715Z,5.20
2019-01-26T08:42:33.873Z,5.08
2019-01-26T08:43:33.910Z,5.12
2019-01-26T08:44:34.148Z,5.14
2019-01-26T08:45:34.208Z,5.23
2019-01-26T08:46:34.401Z,5.11
2019-01-26T08:47:34.627Z,5.10
2019-01-26T08:48:34.676Z,5.10
2019-01-26T08:49:36.892Z,5.14
2019-01-26T08:50:37.053Z,5.10
2019-01-26T08:51:36.283Z,5.21
2019-01-26T08:52:35.229Z,5.14
2019-01-26T08:53:37.410Z,5.11
2019-01-26T08:54:37.936Z,5.23
2019-01-26T08:55:35.639Z,5.18
2019-01-26T08:56:37.578Z,5.15
2019-01-26T08:57:38.212Z,5.15
2019-01-26T08:58:41.982Z,5.08
2019-01-26T08:59:38.406Z,5.20
2019-01-26T09:00:37.386Z,5.14
2019-01-26T09:01:36.463Z,5.26
2019-01-26T09:02:39.452Z,5.23
2019-01-26T09:03:38.400Z,5.35
2019-01-26T09:04:36.998Z,5.38
2019-01-26T09:05:37.171Z,5.43
2019-01-26T09:06:37.431Z,5.44
2019-01-26T09:07:39.432Z,5.41
2019-01-26T09:08:37.690Z,5.41
2019-01-26T09:09:37.948Z,5.43
2019-01-26T09:10:37.929Z,5.44
2019-01-26T09:11:38.129Z,5.36
2019-01-26T09:12:38.418Z,5.38
2019-01-26T09:13:38.508Z,5.33
2019-01-26T09:14:38.724Z,5.38
2019-01-26T09:15:41.011Z,5.46
2019-01-26T09:16:40.934Z,5.46
2019-01-26T09:17:39.331Z,5.43
2019-01-26T09:18:39.517Z,5.54
2019-01-26T09:19:41.490Z,5.56
2019-01-26T09:20:39.790Z,5.47
2019-01-26T09:21:39.964Z,5.57
2019-01-26T09:22:40.169Z,5.61
2019-01-26T09:23:40.325Z,5.50
2019-01-26T09:24:40.521Z,5.61
2019-01-26T09:25:40.729Z,5.56
2019-01-26T09:26:40.959Z,5.61
2019-01-26T09:27:41.105Z,5.57
2019-01-26T09:28:41.273Z,5.59
2019-01-26T09:29:42.601Z,5.56
2019-01-26T09:30:43.843Z,5.68
2019-01-26T09:31:42.318Z,5.59
2019-01-26T09:32:42.137Z,5.53
2019-01-26T09:33:44.120Z,5.65
2019-01-26T09:34:44.059Z,5.73
2019-01-26T09:35:44.386Z,5.76
2019-01-26T09:36:42.533Z,5.71
2019-01-26T09:37:42.722Z,5.57
2019-01-26T09:38:42.925Z,5.68
2019-01-26T09:39:43.127Z,5.73
2019-01-26T09:40:44.895Z,5.80
2019-01-26T09:41:43.488Z,5.69
2019-01-26T09:42:43.686Z,5.68
2019-01-26T09:43:43.902Z,5.82
2019-01-26T09:44:44.116Z,5.84
2019-01-26T09:45:44.123Z,5.73
2019-01-26T09:46:44.442Z,5.84
2019-01-26T09:47:44.506Z,5.83
2019-01-26T09:48:46.366Z,5.82
2019-01-26T09:49:45.918Z,5.86
2019-01-26T09:50:48.020Z,5.84
2019-01-26T09:51:45.291Z,5.79
2019-01-26T09:52:45.451Z,5.83
2019-01-26T09:53:45.493Z,5.91
2019-01-26T09:54:51.810Z,5.93
2019-01-26T10:03:24.845Z,5.62
2019-01-26T10:04:09.322Z,5.69
2019-01-26T10:05:06.939Z,5.57
2019-01-26T10:06:12.715Z,5.69
2019-01-26T10:07:35.123Z,5.59
2019-01-26T10:08:09.434Z,5.71
2019-01-26T10:09:10.354Z,5.68
2019-01-26T10:10:06.683Z,5.73
2019-01-26T10:11:10.140Z,5.73
2019-01-26T10:12:08.901Z,5.87
2019-01-26T10:13:08.732Z,5.82
2019-01-26T10:14:20.654Z,5.87
2019-01-26T10:15:09.959Z,5.80
2019-01-26T10:16:07.932Z,5.89
2019-01-26T10:17:07.861Z,5.89
2019-01-26T10:18:08.307Z,5.86
2019-01-26T10:19:08.098Z,5.84
2019-01-26T10:20:08.154Z,5.83
2019-01-26T10:21:10.283Z,5.76
2019-01-26T10:22:09.293Z,5.89
2019-01-26T10:23:10.824Z,5.73
2019-01-26T10:24:08.700Z,5.87
2019-01-26T10:25:10.730Z,5.86
2019-01-26T10:26:11.356Z,5.90
2019-01-26T10:27:13.106Z,5.91
2019-01-26T10:28:09.229Z,5.90
2019-01-26T10:29:09.647Z,5.98
2019-01-26T10:30:10.516Z,6.11
2019-01-26T10:31:11.860Z,5.99
2019-01-26T10:32:11.231Z,5.91
2019-01-26T10:33:11.190Z,6.02
2019-01-26T10:34:11.224Z,5.94
2019-01-26T10:35:10.523Z,5.97
2019-01-26T10:36:14.175Z,5.94
2019-01-26T10:37:10.862Z,5.99
2019-01-26T10:38:11.674Z,5.99
2019-01-26T10:39:11.442Z,6.04
2019-01-26T10:40:11.163Z,6.04
2019-01-26T10:41:11.410Z,6.19
2019-01-26T10:42:11.578Z,6.14
2019-01-26T10:43:11.731Z,6.12
2019-01-26T10:44:11.960Z,6.12
2019-01-26T10:45:12.008Z,6.24
2019-01-26T10:46:12.229Z,6.17
2019-01-26T10:47:12.686Z,6.30
2019-01-26T10:48:15.323Z,6.09
2019-01-26T10:49:12.885Z,6.17
2019-01-26T10:50:18.026Z,6.09
2019-01-26T10:51:18.154Z,6.26
2019-01-26T10:52:13.265Z,6.26
2019-01-26T10:53:13.584Z,6.22
2019-01-26T10:54:13.713Z,6.17
2019-01-26T10:55:14.048Z,6.09
2019-01-26T10:56:13.924Z,6.16
2019-01-26T10:57:14.389Z,6.28
2019-01-26T10:58:14.233Z,6.31
2019-01-26T10:59:14.401Z,6.31
2019-01-26T11:00:20.641Z,6.33
2019-01-26T11:01:14.610Z,6.31
2019-01-26T11:02:15.002Z,6.30
2019-01-26T11:03:16.774Z,6.35
2019-01-26T11:04:15.213Z,6.19
2019-01-26T11:05:15.172Z,6.30
2019-01-26T11:06:15.551Z,6.41
2019-01-26T11:07:15.886Z,6.35
2019-01-26T11:08:15.667Z,6.35
2019-01-26T11:09:15.886Z,6.33
2019-01-26T11:10:15.869Z,6.35
2019-01-26T11:11:16.000Z,6.45
2019-01-26T11:12:16.186Z,6.46
2019-01-26T11:13:16.277Z,6.36
2019-01-26T11:14:16.412Z,6.46
2019-01-26T11:15:16.509Z,6.44
2019-01-26T11:16:16.662Z,6.31
2019-01-26T11:17:16.748Z,6.56
2019-01-26T11:18:16.965Z,6.60
2019-01-26T11:19:17.202Z,6.52
2019-01-26T11:20:17.558Z,6.59
2019-01-26T11:21:17.620Z,6.60
2019-01-26T11:22:17.617Z,6.56
2019-01-26T11:23:17.790Z,6.52
2019-01-26T11:24:21.478Z,6.36
2019-01-26T11:25:17.953Z,6.39
2019-01-26T11:26:18.371Z,6.31
2019-01-26T11:27:18.479Z,6.35
2019-01-26T11:28:18.496Z,6.36
2019-01-26T11:29:18.582Z,6.39
2019-01-26T11:30:18.814Z,6.33
2019-01-26T11:31:18.938Z,6.41
2019-01-26T11:32:19.058Z,6.52
2019-01-26T11:33:19.259Z,6.44
2019-01-26T11:34:19.369Z,6.38
2019-01-26T11:35:19.459Z,6.38
2019-01-26T11:36:19.648Z,6.31
2019-01-26T11:37:19.803Z,6.54
2019-01-26T11:38:19.909Z,6.56
2019-01-26T11:39:20.095Z,6.56
2019-01-26T11:40:20.305Z,6.49
2019-01-26T11:41:20.898Z,6.52
2019-01-26T11:42:20.396Z,6.35
2019-01-26T11:43:20.600Z,6.49
2019-01-26T11:44:20.697Z,6.54
2019-01-26T11:45:20.895Z,6.51
2019-01-26T11:46:21.004Z,6.59
2019-01-26T11:47:21.193Z,6.62
2019-01-26T11:48:21.391Z,6.60
2019-01-26T11:49:22.299Z,6.59
2019-01-26T11:50:21.627Z,6.64
2019-01-26T11:51:21.769Z,6.52
2019-01-26T11:52:21.898Z,6.45
2019-01-26T11:53:22.003Z,6.54
2019-01-26T11:54:22.073Z,6.60
2019-01-26T11:55:22.782Z,6.57
2019-01-26T11:56:22.428Z,6.60
2019-01-26T11:57:22.548Z,6.52
2019-01-26T11:58:22.728Z,6.36
2019-01-26T11:59:22.863Z,6.49
2019-01-26T12:00:26.005Z,6.31
2019-01-26T12:01:23.386Z,6.33
2019-01-26T12:02:29.853Z,6.36
2019-01-26T12:03:23.499Z,6.35
2019-01-26T12:04:24.221Z,6.44
2019-01-26T12:05:23.863Z,6.42
2019-01-26T12:06:24.717Z,6.52
2019-01-26T12:07:24.223Z,6.45
2019-01-26T12:08:24.201Z,6.51
2019-01-26T12:09:24.490Z,6.51
2019-01-26T12:10:24.592Z,6.62
2019-01-26T12:11:24.760Z,6.52
2019-01-26T12:12:24.946Z,6.54
2019-01-26T12:13:25.249Z,6.57
2019-01-26T12:14:25.354Z,6.54
2019-01-26T12:15:25.450Z,6.52
2019-01-26T12:16:27.092Z,6.60
2019-01-26T12:17:26.816Z,6.62
2019-01-26T12:18:29.422Z,6.64
2019-01-26T12:19:26.032Z,6.67
2019-01-26T12:20:26.209Z,6.66
2019-01-26T12:21:26.389Z,6.66
2019-01-26T12:22:26.571Z,6.67
2019-01-26T12:23:26.788Z,6.79
2019-01-26T12:24:26.936Z,6.67
2019-01-26T12:25:27.117Z,6.70
2019-01-26T12:26:27.293Z,6.69
2019-01-26T12:27:27.472Z,6.79
2019-01-26T12:28:27.866Z,6.77
2019-01-26T12:29:27.867Z,6.85
2019-01-26T12:30:28.114Z,6.75
2019-01-26T12:31:28.144Z,6.74
2019-01-26T12:32:28.307Z,6.75
2019-01-26T12:33:28.481Z,6.84
2019-01-26T12:34:28.652Z,6.79
2019-01-26T12:35:29.163Z,6.78
2019-01-26T12:36:28.971Z,6.72
2019-01-26T12:37:29.135Z,6.77
2019-01-26T12:38:29.333Z,6.84
2019-01-26T12:39:29.534Z,6.92
2019-01-26T12:40:29.787Z,6.89
2019-01-26T12:41:29.903Z,6.85
2019-01-26T12:42:30.077Z,6.82
2019-01-26T12:43:30.283Z,6.82
2019-01-26T12:44:30.454Z,6.75
2019-01-26T12:45:31.094Z,6.87
2019-01-26T12:46:30.867Z,6.84
2019-01-26T12:47:31.053Z,6.81
2019-01-26T12:48:31.226Z,6.85
2019-01-26T12:49:31.392Z,6.92
2019-01-26T12:50:31.564Z,6.95
2019-01-26T12:51:31.771Z,6.99
2019-01-26T12:52:31.966Z,6.87
2019-01-26T12:53:32.130Z,6.85
2019-01-26T12:54:32.307Z,6.92
2019-01-26T12:55:33.237Z,6.79
2019-01-26T12:56:32.964Z,6.92
2019-01-26T12:57:32.866Z,6.88
2019-01-26T12:58:33.090Z,6.87
2019-01-26T12:59:33.232Z,6.95
2019-01-26T13:00:33.477Z,6.87
2019-01-26T13:01:33.618Z,6.96
2019-01-26T13:02:33.994Z,6.88
2019-01-26T13:03:34.856Z,6.95
2019-01-26T13:04:34.067Z,6.84
2019-01-26T13:05:34.171Z,6.93
2019-01-26T13:06:34.349Z,7.03
2019-01-26T13:07:34.522Z,7.02
2019-01-26T13:08:34.706Z,7.05
2019-01-26T13:09:34.885Z,7.02
2019-01-26T13:10:35.058Z,7.03
2019-01-26T13:11:35.243Z,7.00
2019-01-26T13:12:35.434Z,7.05
2019-01-26T13:13:35.605Z,7.13
2019-01-26T13:14:35.806Z,7.03
2019-01-26T13:15:35.958Z,7.05
2019-01-26T13:16:36.384Z,7.10
2019-01-26T13:17:36.250Z,7.07
2019-01-26T13:18:36.475Z,7.10
2019-01-26T13:19:37.150Z,7.20
2019-01-26T13:20:38.731Z,7.21
2019-01-26T13:21:36.938Z,7.14
2019-01-26T13:22:37.195Z,7.21
2019-01-26T13:23:37.255Z,7.28
2019-01-26T13:24:37.456Z,7.35
2019-01-26T13:25:37.640Z,7.28
2019-01-26T13:26:37.823Z,7.31
2019-01-26T13:27:38.013Z,7.21